createdAt,value
2022-12-18T00:02:13.048Z,98762.72
2022-12-18T00:04:39.743Z,98763.78
2022-12-18T00:07:06.132Z,98772.03
2022-12-18T00:09:39.964Z,98762.97
2022-12-18T00:14:42.623Z,98766.41
2022-12-18T00:17:09.142Z,98763.50
2022-12-18T00:19:35.790Z,98754.19
2022-12-18T00:22:02.278Z,98751.53
2022-12-18T00:24:28.799Z,98759.78
2022-12-18T00:26:55.137Z,98758.94
2022-12-18T00:29:21.640Z,98762.41
2022-12-18T00:31:48.201Z,98766.38
2022-12-18T00:34:14.806Z,98765.88
2022-12-18T00:36:42.210Z,98764.03
2022-12-18T00:39:09.339Z,98749.41
2022-12-18T00:41:54.504Z,98753.91
2022-12-18T00:44:20.901Z,98756.84
2022-12-18T00:46:49.041Z,98761.09
2022-12-18T00:49:21.300Z,98771.44
2022-12-18T00:51:48.969Z,98763.97
2022-12-18T00:54:16.292Z,98761.53
2022-12-18T00:56:49.433Z,98769.53
2022-12-18T00:59:19.901Z,98778.03
2022-12-18T01:01:47.693Z,98782.78
2022-12-18T01:04:15.474Z,98781.19
2022-12-18T01:06:41.964Z,98781.16
2022-12-18T01:09:08.474Z,98786.47
2022-12-18T01:11:34.974Z,98786.44
2022-12-18T01:14:01.820Z,98792.28
2022-12-18T01:16:28.385Z,98789.09
2022-12-18T01:18:55.787Z,98799.97
2022-12-18T01:21:23.577Z,98797.84
2022-12-18T01:23:54.946Z,98803.91
2022-12-18T01:26:21.544Z,98802.25
2022-12-18T01:28:48.301Z,98814.50
2022-12-18T01:31:17.425Z,98813.44
2022-12-18T01:33:45.138Z,98813.97
2022-12-18T01:36:21.385Z,98822.50
2022-12-18T01:38:48.425Z,98816.84
2022-12-18T01:41:16.960Z,98815.50
2022-12-18T01:43:58.370Z,98819.75
2022-12-18T01:46:26.715Z,98821.63
2022-12-18T01:49:02.369Z,98821.94
2022-12-18T01:51:31.005Z,98824.06
2022-12-18T01:53:58.409Z,98828.56
2022-12-18T01:56:24.913Z,98824.34
2022-12-18T01:59:02.827Z,98811.28
2022-12-18T02:01:31.435Z,98813.84
2022-12-18T02:04:20.153Z,98814.63
2022-12-18T02:06:51.640Z,98805.00
2022-12-18T02:09:31.574Z,98806.41
2022-12-18T02:12:12.564Z,98801.66
2022-12-18T02:15:13.644Z,98801.94
2022-12-18T02:17:51.213Z,98815.66
2022-12-18T02:20:26.138Z,98813.53
2022-12-18T02:23:06.876Z,98817.53
2022-12-18T02:25:54.889Z,98807.59
2022-12-18T02:28:26.639Z,98803.59
2022-12-18T02:30:57.468Z,98792.16
2022-12-18T02:33:26.436Z,98797.50
2022-12-18T02:35:55.924Z,98802.03
2022-12-18T02:38:24.229Z,98808.94
2022-12-18T02:40:52.728Z,98801.44
2022-12-18T02:43:19.210Z,98791.81
2022-12-18T02:45:53.073Z,98800.88
2022-12-18T02:48:25.157Z,98804.06
2022-12-18T02:51:14.946Z,98795.47
2022-12-18T02:53:49.060Z,98801.59
2022-12-18T02:56:19.656Z,98812.16
2022-12-18T02:59:16.457Z,98795.97
2022-12-18T03:01:51.851Z,98787.88
2022-12-18T03:04:35.239Z,98794.81
2022-12-18T03:07:06.220Z,98795.84
2022-12-18T03:09:39.408Z,98795.88
2022-12-18T03:12:24.884Z,98809.13
2022-12-18T03:14:57.392Z,98804.84
2022-12-18T03:17:27.734Z,98807.31
2022-12-18T03:19:57.757Z,98811.34
2022-12-18T03:22:28.192Z,98808.34
2022-12-18T03:24:57.043Z,98806.47
2022-12-18T03:27:25.512Z,98808.13
2022-12-18T03:30:08.362Z,98804.88
2022-12-18T03:33:00.448Z,98815.97
2022-12-18T03:35:31.896Z,98809.94
2022-12-18T03:37:58.614Z,98805.88
2022-12-18T03:40:36.144Z,98810.66
2022-12-18T03:43:17.456Z,98801.56
2022-12-18T03:45:52.316Z,98808.84
2022-12-18T03:48:38.789Z,98799.97
2022-12-18T03:51:19.301Z,98801.56
2022-12-18T03:53:53.897Z,98791.22
2022-12-18T03:56:24.880Z,98792.50
2022-12-18T03:58:53.197Z,98796.22
2022-12-18T04:01:23.372Z,98811.91
2022-12-18T04:03:51.068Z,98810.34
2022-12-18T04:06:18.672Z,98804.13
2022-12-18T04:08:45.572Z,98800.34
2022-12-18T04:11:12.078Z,98815.06
2022-12-18T04:13:39.802Z,98806.72
2022-12-18T04:16:07.213Z,98800.81
2022-12-18T04:18:33.780Z,98796.00
2022-12-18T04:21:00.080Z,98804.00
2022-12-18T04:23:26.508Z,98819.44
2022-12-18T04:25:53.161Z,98808.25
2022-12-18T04:28:19.670Z,98821.00
2022-12-18T04:30:49.419Z,98819.81
2022-12-18T04:33:18.640Z,98834.25
2022-12-18T04:35:45.793Z,98852.88
2022-12-18T04:38:12.378Z,98854.63
2022-12-18T04:40:39.788Z,98849.22
2022-12-18T04:43:08.256Z,98842.28
2022-12-18T04:45:34.885Z,98839.34
2022-12-18T04:48:02.196Z,98830.78
2022-12-18T04:50:29.589Z,98836.31
2022-12-18T04:52:56.366Z,98827.25
2022-12-18T04:55:25.801Z,98830.22
2022-12-18T04:57:52.490Z,98828.22
2022-12-18T05:00:19.266Z,98833.69
2022-12-18T05:02:46.055Z,98839.00
2022-12-18T05:05:12.640Z,98842.78
2022-12-18T05:07:39.309Z,98835.34
2022-12-18T05:10:09.185Z,98841.66
2022-12-18T05:12:57.187Z,98855.31
2022-12-18T05:15:23.811Z,98850.59
2022-12-18T05:17:50.121Z,98849.50
2022-12-18T05:20:16.685Z,98858.38
2022-12-18T05:22:43.165Z,98852.00
2022-12-18T05:25:09.788Z,98849.22
2022-12-18T05:27:36.432Z,98854.09
2022-12-18T05:30:02.985Z,98858.03
2022-12-18T05:32:29.356Z,98854.91
2022-12-18T05:34:55.844Z,98853.47
2022-12-18T05:37:22.337Z,98856.91
2022-12-18T05:39:48.812Z,98856.91
2022-12-18T05:42:15.304Z,98859.50
2022-12-18T05:44:41.901Z,98863.22
2022-12-18T05:47:08.485Z,98865.88
2022-12-18T05:49:35.151Z,98875.59
2022-12-18T05:52:01.917Z,98866.78
2022-12-18T05:54:29.275Z,98864.50
2022-12-18T05:56:55.804Z,98851.66
2022-12-18T05:59:22.366Z,98850.50
2022-12-18T06:01:49.075Z,98858.31
2022-12-18T06:04:15.736Z,98861.94
2022-12-18T06:06:42.344Z,98862.44
2022-12-18T06:09:10.525Z,98865.78
2022-12-18T06:11:38.120Z,98866.72
2022-12-18T06:14:06.174Z,98862.16
2022-12-18T06:16:33.105Z,98861.19
2022-12-18T06:19:01.826Z,98869.59
2022-12-18T06:21:29.910Z,98868.81
2022-12-18T06:23:56.585Z,98870.97
2022-12-18T06:26:28.013Z,98885.88
2022-12-18T06:28:54.996Z,98878.81
2022-12-18T06:31:21.540Z,98890.66
2022-12-18T06:33:48.057Z,98877.59
2022-12-18T06:36:14.853Z,98882.81
2022-12-18T06:38:43.823Z,98883.63
2022-12-18T06:41:16.333Z,98875.13
2022-12-18T06:43:43.433Z,98889.06
2022-12-18T06:46:10.818Z,98892.72
2022-12-18T06:48:37.780Z,98894.97
2022-12-18T06:51:04.833Z,98906.28
2022-12-18T06:53:33.270Z,98906.81
2022-12-18T06:56:09.481Z,98907.69
2022-12-18T06:58:37.047Z,98916.59
2022-12-18T07:01:05.568Z,98910.09
2022-12-18T07:03:32.383Z,98906.69
2022-12-18T07:05:58.872Z,98895.94
2022-12-18T07:08:25.932Z,98901.25
2022-12-18T07:10:56.021Z,98906.63
2022-12-18T07:13:23.362Z,98911.41
2022-12-18T07:15:49.978Z,98913.19
2022-12-18T07:18:16.470Z,98926.50
2022-12-18T07:20:42.828Z,98919.88
2022-12-18T07:23:09.331Z,98918.44
2022-12-18T07:25:36.762Z,98915.13
2022-12-18T07:28:04.007Z,98911.72
2022-12-18T07:30:30.328Z,98913.88
2022-12-18T07:32:56.873Z,98913.53
2022-12-18T07:35:25.224Z,98912.19
2022-12-18T07:37:52.049Z,98915.06
2022-12-18T07:40:18.594Z,98914.31
2022-12-18T07:42:45.073Z,98914.31
2022-12-18T07:45:11.953Z,98908.41
2022-12-18T07:47:38.748Z,98912.19
2022-12-18T07:50:06.405Z,98907.72
2022-12-18T07:52:32.984Z,98906.31
2022-12-18T07:54:59.953Z,98910.91
2022-12-18T07:57:49.924Z,98918.94
2022-12-18T08:00:14.003Z,98930.81
2022-12-18T08:02:40.717Z,98934.72
2022-12-18T08:05:09.265Z,98932.81
2022-12-18T08:07:35.741Z,98935.25
2022-12-18T08:10:02.282Z,98930.94
2022-12-18T08:12:28.822Z,98939.16
2022-12-18T08:14:55.289Z,98942.66
2022-12-18T08:17:21.787Z,98937.19
2022-12-18T08:19:48.114Z,98941.91
2022-12-18T08:22:14.467Z,98946.41
2022-12-18T08:24:41.134Z,98943.75
2022-12-18T08:27:28.418Z,98945.63
2022-12-18T08:29:53.958Z,98951.19
2022-12-18T08:32:20.469Z,98965.97
2022-12-18T08:34:46.995Z,98967.25
2022-12-18T08:37:13.352Z,98975.81
2022-12-18T08:39:39.827Z,98975.66
2022-12-18T08:42:25.003Z,98973.34
2022-12-18T08:44:51.308Z,98971.69
2022-12-18T08:47:17.804Z,98973.22
2022-12-18T08:49:44.327Z,98974.94
2022-12-18T08:52:10.804Z,98965.28
2022-12-18T08:54:37.335Z,98963.41
2022-12-18T08:57:03.841Z,98963.91
2022-12-18T08:59:30.333Z,98963.41
2022-12-18T09:01:57.034Z,98965.22
2022-12-18T09:04:24.067Z,98965.81
2022-12-18T09:06:50.720Z,98965.44
2022-12-18T09:09:17.337Z,98955.25
2022-12-18T09:11:43.703Z,98961.75
2022-12-18T09:14:11.189Z,98960.19
2022-12-18T09:16:37.824Z,98959.75
2022-12-18T09:19:05.379Z,98955.03
2022-12-18T09:21:36.929Z,98959.31
2022-12-18T09:24:05.218Z,98958.16
2022-12-18T09:26:35.548Z,98962.28
2022-12-18T09:29:03.478Z,98938.94
2022-12-18T09:31:30.014Z,98950.97
2022-12-18T09:33:57.590Z,98949.34
2022-12-18T09:36:24.201Z,98957.13
2022-12-18T09:38:50.846Z,98941.03
2022-12-18T09:41:42.094Z,98935.38
2022-12-18T09:44:18.331Z,98930.94
2022-12-18T09:46:49.909Z,98934.78
2022-12-18T09:49:21.452Z,98926.38
2022-12-18T09:52:09.536Z,98928.00
2022-12-18T09:54:44.903Z,98929.69
2022-12-18T09:57:16.650Z,98925.25
2022-12-18T09:59:47.732Z,98912.88
2022-12-18T10:02:17.906Z,98927.47
2022-12-18T10:04:47.581Z,98929.19
2022-12-18T10:07:29.384Z,98924.75
2022-12-18T10:10:05.368Z,98925.47
2022-12-18T10:12:47.535Z,98918.19
2022-12-18T10:15:31.151Z,98927.28
2022-12-18T10:18:23.673Z,98919.31
2022-12-18T10:21:04.626Z,98920.28
2022-12-18T10:23:48.157Z,98923.31
2022-12-18T10:26:15.375Z,98911.41
2022-12-18T10:28:44.720Z,98916.13
2022-12-18T10:31:18.437Z,98913.31
2022-12-18T10:33:45.350Z,98915.19
2022-12-18T10:36:12.928Z,98917.88
2022-12-18T10:38:39.727Z,98918.69
2022-12-18T10:41:12.531Z,98924.75
2022-12-18T10:43:40.583Z,98917.53
2022-12-18T10:46:09.956Z,98916.22
2022-12-18T10:48:48.564Z,98919.13
2022-12-18T10:51:38.433Z,98919.19
2022-12-18T10:54:07.835Z,98918.44
2022-12-18T10:56:36.787Z,98916.22
2022-12-18T10:59:08.855Z,98926.72
2022-12-18T11:01:56.521Z,98928.16
2022-12-18T11:04:33.028Z,98924.94
2022-12-18T11:07:08.689Z,98928.22
2022-12-18T11:09:39.949Z,98918.59
2022-12-18T11:12:23.527Z,98922.56
2022-12-18T11:14:53.009Z,98922.31
2022-12-18T11:17:29.228Z,98922.72
2022-12-18T11:19:58.313Z,98921.66
2022-12-18T11:22:28.924Z,98923.88
2022-12-18T11:25:36.549Z,98917.81
2022-12-18T11:27:56.828Z,98915.72
2022-12-18T11:30:35.394Z,98915.63
2022-12-18T11:33:11.348Z,98908.47
2022-12-18T11:35:57.071Z,98902.72
2022-12-18T11:38:27.149Z,98905.19
2022-12-18T11:41:05.821Z,98902.34
2022-12-18T11:43:45.724Z,98911.06
2022-12-18T11:46:19.832Z,98896.56
2022-12-18T11:48:57.308Z,98896.75
2022-12-18T11:51:36.338Z,98891.59
2022-12-18T11:54:14.727Z,98894.28
2022-12-18T11:57:04.144Z,98892.97
2022-12-18T11:59:36.580Z,98883.75
2022-12-18T12:02:27.992Z,98886.41
2022-12-18T12:05:12.818Z,98883.53
2022-12-18T12:07:58.788Z,98879.78
2022-12-18T12:10:34.988Z,98867.63
2022-12-18T12:13:18.174Z,98871.69
2022-12-18T12:16:16.701Z,98869.25
2022-12-18T12:19:13.785Z,98864.28
2022-12-18T12:21:52.643Z,98865.34
2022-12-18T12:24:50.170Z,98855.22
2022-12-18T12:27:40.725Z,98859.31
2022-12-18T12:30:31.217Z,98870.63
2022-12-18T12:33:19.139Z,98870.13
2022-12-18T12:36:08.763Z,98867.53
2022-12-18T12:38:49.862Z,98869.16
2022-12-18T12:41:41.948Z,98862.28
2022-12-18T12:44:15.345Z,98863.97
2022-12-18T12:46:44.482Z,98869.31
2022-12-18T12:49:16.491Z,98866.16
2022-12-18T12:51:48.219Z,98865.03
2022-12-18T12:54:24.702Z,98875.50
2022-12-18T12:57:03.218Z,98872.31
2022-12-18T12:59:43.380Z,98863.78
2022-12-18T13:02:36.924Z,98867.66
2022-12-18T13:05:24.246Z,98874.91
2022-12-18T13:08:00.424Z,98872.81
2022-12-18T13:10:31.939Z,98872.09
2022-12-18T13:13:21.141Z,98874.91
2022-12-18T13:16:08.454Z,98864.38
2022-12-18T13:18:35.551Z,98866.34
2022-12-18T13:21:03.734Z,98858.97
2022-12-18T13:23:32.613Z,98856.78
2022-12-18T13:26:11.315Z,98851.16
2022-12-18T13:28:47.486Z,98844.31
2022-12-18T13:31:17.829Z,98840.25
2022-12-18T13:34:24.662Z,98840.91
2022-12-18T13:36:35.326Z,98830.22
2022-12-18T13:39:19.753Z,98842.53
2022-12-18T13:42:34.133Z,98849.47
2022-12-18T13:45:00.886Z,98841.13
2022-12-18T13:47:34.540Z,98835.56
2022-12-18T13:50:10.060Z,98837.75
2022-12-18T13:52:40.213Z,98846.09
2022-12-18T13:55:16.859Z,98852.16
2022-12-18T13:57:43.277Z,98855.84
2022-12-18T14:00:29.852Z,98858.72
2022-12-18T14:02:58.641Z,98845.50
2022-12-18T14:05:27.546Z,98843.91
2022-12-18T14:07:55.393Z,98856.91
2022-12-18T14:13:16.562Z,98862.47
2022-12-18T14:15:47.582Z,98856.41
2022-12-18T14:18:26.388Z,98856.22
2022-12-18T14:20:57.658Z,98857.38
2022-12-18T14:23:37.553Z,98858.16
2022-12-18T14:26:22.102Z,98854.41
2022-12-18T14:28:49.196Z,98848.06
2022-12-18T14:31:25.135Z,98846.97
2022-12-18T14:33:52.568Z,98850.97
2022-12-18T14:36:26.120Z,98858.16
2022-12-18T14:38:57.606Z,98855.97
2022-12-18T14:41:24.988Z,98857.00
2022-12-18T14:43:53.364Z,98859.56
2022-12-18T14:46:34.318Z,98854.00
2022-12-18T14:49:19.759Z,98854.69
2022-12-18T14:51:56.210Z,98845.81
2022-12-18T14:54:24.064Z,98849.63
2022-12-18T14:56:57.578Z,98846.38
2022-12-18T14:59:26.104Z,98845.28
2022-12-18T15:01:58.939Z,98850.63
2022-12-18T15:04:29.841Z,98843.63
2022-12-18T15:07:17.419Z,98843.78
2022-12-18T15:10:01.736Z,98850.88
2022-12-18T15:12:35.516Z,98854.25
2022-12-18T15:15:02.467Z,98864.81
2022-12-18T15:17:29.371Z,98858.81
2022-12-18T15:20:09.439Z,98864.13
2022-12-18T15:22:37.802Z,98853.41
2022-12-18T15:25:30.186Z,98851.22
2022-12-18T15:27:56.751Z,98852.91
2022-12-18T15:30:26.305Z,98866.59
2022-12-18T15:33:26.024Z,98868.44
2022-12-18T15:36:04.368Z,98875.19
2022-12-18T15:38:31.540Z,98877.69
2022-12-18T15:40:58.488Z,98870.56
2022-12-18T15:43:34.870Z,98868.03
2022-12-18T15:46:03.250Z,98863.63
2022-12-18T15:48:30.241Z,98862.03
2022-12-18T15:50:59.338Z,98860.66
2022-12-18T15:53:30.490Z,98874.53
2022-12-18T15:56:15.736Z,98873.28
2022-12-18T15:58:42.986Z,98871.50
2022-12-18T16:01:11.201Z,98873.06
2022-12-18T16:03:37.895Z,98874.22
2022-12-18T16:06:04.731Z,98870.91
2022-12-18T16:08:32.060Z,98879.97
2022-12-18T16:10:59.337Z,98874.66
2022-12-18T16:13:25.920Z,98876.84
2022-12-18T16:15:52.601Z,98875.84
2022-12-18T16:18:18.992Z,98874.03
2022-12-18T16:20:45.472Z,98877.28
2022-12-18T16:23:11.797Z,98872.72
2022-12-18T16:25:38.116Z,98873.00
2022-12-18T16:28:04.546Z,98870.75
2022-12-18T16:30:32.347Z,98864.47
2022-12-18T16:33:05.225Z,98860.19
2022-12-18T16:35:31.846Z,98852.25
2022-12-18T16:37:58.186Z,98852.75
2022-12-18T16:40:24.578Z,98857.59
2022-12-18T16:42:51.085Z,98860.66
2022-12-18T16:45:18.468Z,98858.97
2022-12-18T16:47:45.336Z,98863.03
2022-12-18T16:50:12.241Z,98853.13
2022-12-18T16:52:39.125Z,98860.78
2022-12-18T16:55:06.168Z,98852.03
2022-12-18T16:57:33.218Z,98860.78
2022-12-18T17:00:04.781Z,98860.84
2022-12-18T17:02:32.173Z,98857.31
2022-12-18T17:05:00.015Z,98856.94
2022-12-18T17:07:28.198Z,98858.97
2022-12-18T17:09:54.848Z,98852.69
2022-12-18T17:12:22.459Z,98860.00
2022-12-18T17:14:49.209Z,98856.38
2022-12-18T17:17:24.014Z,98861.28
2022-12-18T17:19:52.119Z,98858.69
2022-12-18T17:22:19.335Z,98859.34
2022-12-18T17:24:46.712Z,98846.53
2022-12-18T17:27:13.248Z,98852.81
2022-12-18T17:29:45.358Z,98850.94
2022-12-18T17:32:14.140Z,98845.50
2022-12-18T17:34:40.915Z,98848.31
2022-12-18T17:37:07.821Z,98841.69
2022-12-18T17:39:35.654Z,98843.44
2022-12-18T17:42:02.164Z,98846.25
2022-12-18T17:44:28.721Z,98842.06
2022-12-18T17:46:55.853Z,98836.66
2022-12-18T17:49:22.412Z,98844.16
2022-12-18T17:51:49.103Z,98841.19
2022-12-18T17:54:15.671Z,98846.00
2022-12-18T17:56:42.195Z,98838.78
2022-12-18T17:59:09.214Z,98832.59
2022-12-18T18:01:42.397Z,98832.59
2022-12-18T18:04:11.126Z,98833.72
2022-12-18T18:06:38.987Z,98846.84
2022-12-18T18:09:06.437Z,98840.88
2022-12-18T18:11:55.084Z,98839.22
2022-12-18T18:14:22.926Z,98836.97
2022-12-18T18:16:52.054Z,98840.44
2022-12-18T18:19:23.818Z,98839.94
2022-12-18T18:21:52.006Z,98839.59
2022-12-18T18:24:20.533Z,98839.31
2022-12-18T18:26:47.413Z,98839.03
2022-12-18T18:29:22.198Z,98834.81
2022-12-18T18:31:49.041Z,98834.72
2022-12-18T18:34:22.360Z,98830.16
2022-12-18T18:36:48.955Z,98826.56
2022-12-18T18:39:15.366Z,98826.81
2022-12-18T18:41:42.180Z,98833.81
2022-12-18T18:44:13.637Z,98830.28
2022-12-18T18:46:40.181Z,98834.03
2022-12-18T18:49:06.819Z,98830.50
2022-12-18T18:51:35.275Z,98823.22
2022-12-18T18:54:02.749Z,98827.97
2022-12-18T18:59:16.884Z,98830.91
2022-12-18T19:01:44.326Z,98836.63
2022-12-18T19:04:11.009Z,98834.59
2022-12-18T19:06:37.634Z,98837.88
2022-12-18T19:09:06.607Z,98831.81
2022-12-18T19:11:52.122Z,98831.44
2022-12-18T19:14:18.546Z,98829.88
2022-12-18T19:16:45.729Z,98832.53
2022-12-18T19:19:12.925Z,98816.81
2022-12-18T19:21:39.693Z,98817.53
2022-12-18T19:24:06.605Z,98806.75
2022-12-18T19:26:33.241Z,98812.38
2022-12-18T19:29:05.335Z,98808.06
2022-12-18T19:31:36.074Z,98813.31
2022-12-18T19:34:04.992Z,98807.94
2022-12-18T19:36:32.161Z,98812.19
2022-12-18T19:39:00.761Z,98822.53
2022-12-18T19:41:29.172Z,98817.00
2022-12-18T19:43:59.732Z,98810.06
2022-12-18T19:46:26.326Z,98807.09
2022-12-18T19:48:52.838Z,98807.88
2022-12-18T19:51:26.518Z,98807.44
2022-12-18T19:53:58.944Z,98809.34
2022-12-18T19:56:28.714Z,98805.56
2022-12-18T19:58:55.630Z,98799.00
2022-12-18T20:01:24.119Z,98796.69
2022-12-18T20:03:52.772Z,98798.00
2022-12-18T20:06:25.612Z,98796.81
2022-12-18T20:08:54.024Z,98796.69
2022-12-18T20:11:24.914Z,98795.78
2022-12-18T20:13:51.548Z,98777.81
2022-12-18T20:16:18.154Z,98791.72
2022-12-18T20:18:44.898Z,98777.94
2022-12-18T20:21:14.066Z,98770.56
2022-12-18T20:23:41.618Z,98784.69
2022-12-18T20:26:08.753Z,98791.84
2022-12-18T20:28:35.471Z,98788.94
2022-12-18T20:31:03.862Z,98794.44
2022-12-18T20:33:32.363Z,98787.84
2022-12-18T20:36:03.835Z,98789.41
2022-12-18T20:38:30.665Z,98785.88
2022-12-18T20:40:59.323Z,98774.09
2022-12-18T20:43:25.919Z,98768.16
2022-12-18T20:46:00.873Z,98780.66
2022-12-18T20:48:28.491Z,98792.88
2022-12-18T20:51:05.854Z,98797.06
2022-12-18T20:53:33.032Z,98795.63
2022-12-18T20:55:59.550Z,98792.47
2022-12-18T20:58:26.042Z,98790.66
2022-12-18T21:01:06.655Z,98782.69
2022-12-18T21:03:36.942Z,98784.53
2022-12-18T21:06:04.070Z,98776.63
2022-12-18T21:08:30.594Z,98777.28
2022-12-18T21:11:33.057Z,98762.91
2022-12-18T21:13:59.474Z,98749.81
2022-12-18T21:16:25.958Z,98751.13
2022-12-18T21:18:54.532Z,98753.09
2022-12-18T21:21:26.225Z,98758.28
2022-12-18T21:23:53.607Z,98757.25
2022-12-18T21:26:22.588Z,98752.66
2022-12-18T21:28:58.641Z,98748.53
2022-12-18T21:31:27.954Z,98751.28
2022-12-18T21:33:55.861Z,98747.81
2022-12-18T21:36:29.601Z,98752.06
2022-12-18T21:38:56.681Z,98750.91
2022-12-18T21:41:42.598Z,98763.53
2022-12-18T21:44:12.474Z,98744.13
2022-12-18T21:46:41.539Z,98732.34
2022-12-18T21:49:09.748Z,98734.06
2022-12-18T21:51:36.631Z,98739.94
2022-12-18T21:54:04.077Z,98737.09
2022-12-18T21:56:44.405Z,98749.47
2022-12-18T21:59:12.958Z,98750.69
2022-12-18T22:01:39.366Z,98750.78
2022-12-18T22:04:05.906Z,98753.78
2022-12-18T22:06:32.476Z,98747.50
2022-12-18T22:08:58.962Z,98753.09
2022-12-18T22:11:25.514Z,98763.34
2022-12-18T22:13:52.010Z,98769.63
2022-12-18T22:16:18.570Z,98762.69
2022-12-18T22:18:44.946Z,98748.59
2022-12-18T22:21:28.519Z,98745.56
2022-12-18T22:24:01.624Z,98740.34
2022-12-18T22:26:31.806Z,98738.97
2022-12-18T22:29:20.400Z,98728.53
2022-12-18T22:31:47.129Z,98736.66
2022-12-18T22:34:13.687Z,98737.41
2022-12-18T22:36:44.065Z,98730.66
2022-12-18T22:39:16.953Z,98722.75
2022-12-18T22:41:43.595Z,98721.63
2022-12-18T22:44:10.668Z,98715.72
2022-12-18T22:46:44.281Z,98713.97
2022-12-18T22:49:20.740Z,98714.09
2022-12-18T22:51:48.273Z,98716.88
2022-12-18T22:54:15.272Z,98719.38
2022-12-18T22:56:42.984Z,98722.72
2022-12-18T22:59:16.418Z,98712.34
2022-12-18T23:01:43.290Z,98710.38
2022-12-18T23:04:12.069Z,98713.47
2022-12-18T23:06:39.444Z,98697.56
2022-12-18T23:09:06.734Z,98694.44
2022-12-18T23:11:33.478Z,98700.84
2022-12-18T23:13:59.864Z,98696.66
2022-12-18T23:16:26.417Z,98701.16
2022-12-18T23:18:55.579Z,98704.03
2022-12-18T23:21:23.138Z,98699.69
2022-12-18T23:23:51.382Z,98695.72
2022-12-18T23:26:23.350Z,98693.34
2022-12-18T23:28:52.108Z,98678.88
2022-12-18T23:31:30.390Z,98686.59
2022-12-18T23:33:58.861Z,98695.50
2022-12-18T23:36:25.881Z,98713.16
2022-12-18T23:38:55.181Z,98720.72
2022-12-18T23:41:23.587Z,98721.34
2022-12-18T23:43:50.066Z,98721.97
2022-12-18T23:46:25.502Z,98747.41
2022-12-18T23:48:52.125Z,98749.22
2022-12-18T23:51:23.405Z,98738.88
2022-12-18T23:53:50.950Z,98724.69
2022-12-18T23:56:17.468Z,98709.25
2022-12-18T23:58:44.470Z,98704.91
